This is the latest recevied weather packets stored in our database for station/object WX1N. If no packets are shown the sender has not sent any weather packets the latest 1 day(s).
| Time | Temp. | Humidity | Pressure | Rain* | Wind** | Luminosity | Snow |
|---|---|---|---|---|---|---|---|
| 1778016903 | 17.78° C | 85% | 1003.5 hPa | 0 mm | 0 m/s | - | - |
| 1778016603 | 17.78° C | 82% | 1003.1 hPa | 0 mm | 0 m/s | - | - |
| 1778016304 | 18.33° C | 80% | 1003.9 hPa | 0 mm | 0 m/s | - | - |
| 1778016003 | 18.89° C | 77% | 1003.4 hPa | 0 mm | 0 m/s | - | - |
| 1778015703 | 19.44° C | 74% | 1003.1 hPa | 0 mm | 0 m/s | - | - |
| 1778015403 | 21.11° C | 66% | 1003.4 hPa | 0 mm | 0 m/s | - | - |
| 1778015103 | 22.22° C | 57% | 1003.6 hPa | 0 mm | 0 m/s | - | - |
| 1778014804 | 23.89° C | 49% | 1003.6 hPa | 0 mm | 0 m/s | - | - |
| 1778014503 | 26.11° C | 39% | 1003.3 hPa | 0 mm | 0 m/s | - | - |
| 1778014204 | 26.67° C | 36% | 1001.6 hPa | 0 mm | 0 m/s | - | - |
| 1778013903 | 26.67° C | 36% | 1001.4 hPa | 0 mm | 0 m/s | - | - |
| 1778013603 | 26.67° C | 34% | 1001.2 hPa | 0 mm | 0 m/s | - | - |
| 1778013304 | 26.67° C | 36% | 1001.2 hPa | 0 mm | 0 m/s | - | - |
| 1778013003 | 27.22° C | 36% | 1001 hPa | 0 mm | 0 m/s | - | - |
| 1778012704 | 27.22° C | 36% | 1001 hPa | 0 mm | 0 m/s | - | - |
| 1778012403 | 27.22° C | 36% | 1001 hPa | 0 mm | 0 m/s | - | - |
| 1778012103 | 27.22° C | 36% | 1001.1 hPa | 0 mm | 0 m/s | - | - |
| 1778011804 | 27.22° C | 35% | 1001.3 hPa | 0 mm | 0 m/s | - | - |
| 1778011503 | 27.22° C | 34% | 1001.2 hPa | 0 mm | 0 m/s | - | - |
| 1778011204 | 27.22° C | 33% | 1001.4 hPa | 0 mm | 0 m/s | - | - |
| 1778010903 | 27.22° C | 34% | 1001.5 hPa | 0 mm | 0 m/s | - | - |
| 1778010603 | 27.78° C | 33% | 1001.5 hPa | 0 mm | 0 m/s | - | - |
| 1778010303 | 27.78° C | 33% | 1001.4 hPa | 0 mm | 0 m/s | - | - |
| 1778010003 | 27.22° C | 33% | 1001.4 hPa | 0 mm | 0 m/s | - | - |
| 1778009704 | 27.78° C | 34% | 1001.4 hPa | 0 mm | 0 m/s | - | - |
* Rain latest hour (hover to see other rain measurements)
** Current wind speed in m/s (hover to see current wind gust speed)